createdAt,value
2019-05-07T00:04:55.123Z,3.54
2019-05-07T00:07:24.419Z,3.68
2019-05-07T00:09:53.760Z,3.78
2019-05-07T00:12:23.208Z,3.90
2019-05-07T00:15:00.934Z,4.00
2019-05-07T00:17:23.571Z,4.06
2019-05-07T00:19:52.847Z,4.12
2019-05-07T00:22:22.874Z,4.16
2019-05-07T00:24:53.193Z,4.16
2019-05-07T00:27:42.683Z,4.22
2019-05-07T00:33:26.228Z,4.25
2019-05-07T00:36:14.435Z,4.26
2019-05-07T00:41:36.240Z,4.40
2019-05-07T00:46:42.745Z,4.33
2019-05-07T00:49:12.796Z,4.28
2019-05-07T00:54:16.633Z,4.12
2019-05-07T00:56:45.927Z,4.05
2019-05-07T00:59:15.219Z,4.03
2019-05-07T01:01:44.543Z,3.99
2019-05-07T01:04:13.841Z,3.96
2019-05-07T01:06:43.205Z,3.90
2019-05-07T01:09:12.523Z,3.87
2019-05-07T01:12:02.979Z,3.85
2019-05-07T01:14:32.500Z,3.84
2019-05-07T01:19:53.045Z,3.83
2019-05-07T01:22:42.454Z,3.80
2019-05-07T01:25:12.897Z,3.79
2019-05-07T01:27:43.229Z,3.78
2019-05-07T01:30:52.877Z,3.76
2019-05-07T01:38:56.601Z,3.95
2019-05-07T01:41:25.886Z,3.98
2019-05-07T01:44:14.075Z,4.00
2019-05-07T01:46:43.374Z,4.05
2019-05-07T01:49:12.792Z,4.08
2019-05-07T01:51:42.392Z,4.09
2019-05-07T01:54:13.172Z,4.09
2019-05-07T01:56:42.826Z,4.07
2019-05-07T01:59:13.510Z,4.01
2019-05-07T02:04:38.186Z,3.89
2019-05-07T02:07:26.381Z,3.67
2019-05-07T02:10:14.590Z,3.77
2019-05-07T02:12:43.989Z,3.70
2019-05-07T02:15:13.478Z,3.66
2019-05-07T02:17:43.075Z,3.63
2019-05-07T02:20:13.883Z,3.59
2019-05-07T02:22:43.217Z,3.53
2019-05-07T02:25:12.836Z,3.49
2019-05-07T02:27:43.639Z,3.45
2019-05-07T02:33:08.438Z,3.39
2019-05-07T02:35:37.737Z,3.35
2019-05-07T02:38:25.941Z,3.30
2019-05-07T02:43:48.574Z,3.30
2019-05-07T02:52:13.568Z,3.52
2019-05-07T02:55:04.059Z,3.58
2019-05-07T02:57:33.946Z,3.67
2019-05-07T03:05:13.944Z,3.74
2019-05-07T03:08:03.326Z,3.73
2019-05-07T03:10:34.189Z,3.71
2019-05-07T03:13:04.225Z,3.73
2019-05-07T03:15:33.803Z,3.75
2019-05-07T03:18:03.678Z,3.77
2019-05-07T03:26:34.130Z,3.79
2019-05-07T03:32:16.141Z,3.89
2019-05-07T03:35:06.788Z,3.86
2019-05-07T03:37:36.549Z,3.80
2019-05-07T03:42:46.030Z,3.69
2019-05-07T03:45:34.250Z,3.63
2019-05-07T03:48:23.718Z,3.58
2019-05-07T03:50:53.495Z,3.52
2019-05-07T03:55:57.624Z,3.43
2019-05-07T03:58:26.951Z,3.36
2019-05-07T04:00:56.284Z,3.34
2019-05-07T04:03:25.580Z,3.32
2019-05-07T04:05:54.902Z,3.30
2019-05-07T04:08:24.204Z,3.25
2019-05-07T04:10:54.151Z,3.23
2019-05-07T04:13:24.686Z,3.20
2019-05-07T04:15:53.949Z,3.20
2019-05-07T04:18:43.707Z,3.19
2019-05-07T04:21:14.137Z,3.22
2019-05-07T04:23:44.374Z,3.28
2019-05-07T04:26:39.499Z,3.27
2019-05-07T04:29:13.255Z,3.27
2019-05-07T04:31:43.960Z,3.25
2019-05-07T04:36:54.453Z,3.34
2019-05-07T04:39:23.764Z,3.36
2019-05-07T04:41:53.324Z,3.43
2019-05-07T04:44:24.088Z,3.50
2019-05-07T04:46:53.614Z,3.57
2019-05-07T04:49:24.436Z,3.64
2019-05-07T04:52:15.368Z,3.69
2019-05-07T04:54:43.979Z,3.73
2019-05-07T04:57:33.661Z,3.78
2019-05-07T05:03:15.004Z,3.91
2019-05-07T05:05:44.354Z,4.00
2019-05-07T05:08:32.783Z,4.08
2019-05-07T05:11:03.390Z,4.17
2019-05-07T05:13:33.402Z,4.30
2019-05-07T05:19:13.254Z,4.48
2019-05-07T05:22:02.001Z,4.60
2019-05-07T05:27:12.191Z,4.78
2019-05-07T05:29:42.991Z,4.84
2019-05-07T05:32:13.242Z,4.92
2019-05-07T05:34:42.710Z,5.01
2019-05-07T05:37:12.097Z,5.08
2019-05-07T05:39:42.589Z,5.15
2019-05-07T05:45:35.693Z,5.29
2019-05-07T05:51:03.117Z,5.43
2019-05-07T05:59:37.039Z,5.61
2019-05-07T06:10:29.824Z,5.84
2019-05-07T06:16:02.944Z,5.95
2019-05-07T06:18:52.542Z,5.99
2019-05-07T06:26:44.649Z,6.06
2019-05-07T06:29:13.952Z,6.10
2019-05-07T06:34:34.226Z,6.23
2019-05-07T06:37:04.220Z,6.29
2019-05-07T06:42:33.766Z,6.44
2019-05-07T06:48:02.994Z,6.56
2019-05-07T06:50:32.825Z,6.59
2019-05-07T06:53:02.799Z,6.67
2019-05-07T06:55:33.203Z,6.80
2019-05-07T07:04:04.977Z,7.07
2019-05-07T07:06:53.217Z,7.20
2019-05-07T07:14:42.376Z,7.33
2019-05-07T07:17:12.947Z,7.44
2019-05-07T07:19:43.033Z,7.51
2019-05-07T07:22:12.992Z,7.57
2019-05-07T07:24:43.428Z,7.57
2019-05-07T07:27:13.263Z,7.67
2019-05-07T07:41:02.112Z,8.17
2019-05-07T07:43:32.557Z,8.28
2019-05-07T07:46:02.221Z,8.32
2019-05-07T07:48:33.001Z,8.34
2019-05-07T07:51:03.218Z,8.30
2019-05-07T07:53:35.538Z,8.37
2019-05-07T07:56:23.339Z,8.31
2019-05-07T07:59:12.630Z,8.22
2019-05-07T08:02:01.866Z,8.14
2019-05-07T08:04:32.552Z,8.15
2019-05-07T08:07:22.825Z,8.25
2019-05-07T08:09:52.144Z,8.43
2019-05-07T08:12:22.179Z,8.56
2019-05-07T08:14:52.509Z,8.74
2019-05-07T08:17:22.559Z,8.97
2019-05-07T08:19:52.960Z,9.15
2019-05-07T08:22:22.793Z,9.25
2019-05-07T08:24:53.513Z,9.14
2019-05-07T08:27:22.841Z,9.18
2019-05-07T08:29:52.588Z,9.40
2019-05-07T08:32:42.690Z,9.46
2019-05-07T08:38:07.346Z,9.11
2019-05-07T08:43:24.954Z,8.81
2019-05-07T08:46:32.823Z,8.57
2019-05-07T08:49:14.927Z,8.43
2019-05-07T08:51:44.259Z,8.43
2019-05-07T08:54:13.597Z,8.39
2019-05-07T08:56:54.274Z,8.36
2019-05-07T08:59:23.786Z,8.50
2019-05-07T09:01:53.092Z,8.57
2019-05-07T09:04:22.389Z,8.71
2019-05-07T09:06:52.007Z,8.89
2019-05-07T09:09:22.704Z,8.99
2019-05-07T09:11:52.003Z,9.00
2019-05-07T09:14:24.462Z,9.15
2019-05-07T09:17:04.188Z,9.17
2019-05-07T09:19:47.182Z,9.17
2019-05-07T09:22:05.113Z,9.05
2019-05-07T09:24:34.447Z,9.13
2019-05-07T09:27:22.762Z,9.27
2019-05-07T09:32:58.504Z,9.33
2019-05-07T09:35:46.814Z,9.28
2019-05-07T09:40:57.092Z,9.24
2019-05-07T09:43:39.714Z,9.36
2019-05-07T09:46:09.035Z,9.36
2019-05-07T09:48:38.346Z,9.49
2019-05-07T09:51:07.687Z,9.37
2019-05-07T09:53:36.978Z,9.55
2019-05-07T09:59:05.780Z,9.58
2019-05-07T10:01:35.117Z,9.34
2019-05-07T10:04:04.523Z,9.94
2019-05-07T10:06:33.876Z,10.08
2019-05-07T10:09:03.281Z,10.14
2019-05-07T10:14:13.566Z,10.33
2019-05-07T10:17:02.735Z,10.37
2019-05-07T10:19:33.035Z,10.29
2019-05-07T10:22:02.448Z,10.25
2019-05-07T10:27:27.357Z,10.14
2019-05-07T10:29:56.676Z,10.16
2019-05-07T10:32:25.986Z,10.06
2019-05-07T10:34:55.309Z,10.07
2019-05-07T10:37:24.622Z,10.27
2019-05-07T10:39:53.942Z,10.44
2019-05-07T10:42:43.114Z,10.70
2019-05-07T10:45:32.414Z,10.68
2019-05-07T10:48:22.073Z,10.78
2019-05-07T10:50:53.138Z,10.62
2019-05-07T10:53:22.934Z,10.48
2019-05-07T10:55:53.475Z,10.60
2019-05-07T10:58:22.787Z,10.71
2019-05-07T11:00:52.342Z,10.82
2019-05-07T11:03:23.205Z,10.75
2019-05-07T11:05:52.678Z,10.54
2019-05-07T11:08:22.244Z,10.49
2019-05-07T11:11:10.612Z,10.28
2019-05-07T11:13:42.109Z,10.13
2019-05-07T11:19:02.061Z,10.03
2019-05-07T11:21:33.392Z,10.17
2019-05-07T11:24:03.381Z,10.39
2019-05-07T11:26:33.683Z,10.50
2019-05-07T11:29:02.957Z,10.56
2019-05-07T11:31:33.055Z,10.58
2019-05-07T11:36:52.383Z,10.42
2019-05-07T11:42:29.883Z,10.63
2019-05-07T11:44:59.201Z,10.43
2019-05-07T11:50:39.432Z,10.42
2019-05-07T11:53:10.195Z,10.56
2019-05-07T11:55:39.484Z,10.51
2019-05-07T11:58:08.787Z,10.27
2019-05-07T12:00:56.984Z,10.43
2019-05-07T12:03:26.353Z,10.54
2019-05-07T12:05:55.636Z,10.65
2019-05-07T12:08:37.614Z,10.70
2019-05-07T12:10:55.958Z,10.67
2019-05-07T12:13:25.283Z,10.51
2019-05-07T12:15:54.593Z,10.50
2019-05-07T12:18:23.906Z,10.41
2019-05-07T12:20:54.231Z,10.51
2019-05-07T12:23:24.235Z,10.69
2019-05-07T12:25:53.537Z,10.62
2019-05-07T12:28:23.045Z,10.62
2019-05-07T12:31:12.148Z,10.60
2019-05-07T12:34:02.589Z,10.58
2019-05-07T12:36:32.217Z,10.52
2019-05-07T12:39:02.223Z,10.58
2019-05-07T12:41:34.253Z,10.54
2019-05-07T12:44:44.061Z,10.53
2019-05-07T12:47:13.362Z,10.47
2019-05-07T12:49:42.977Z,10.43
2019-05-07T12:55:28.827Z,10.64
2019-05-07T12:57:58.141Z,10.44
2019-05-07T13:01:06.842Z,10.41
2019-05-07T13:03:38.606Z,10.40
2019-05-07T13:06:07.898Z,10.48
2019-05-07T13:08:37.217Z,10.45
2019-05-07T13:11:06.521Z,10.49
2019-05-07T13:13:35.827Z,10.31
2019-05-07T13:16:05.211Z,10.27
2019-05-07T13:18:34.508Z,10.35
2019-05-07T13:21:03.835Z,10.22
2019-05-07T13:23:52.236Z,10.11
2019-05-07T13:26:24.344Z,10.16
2019-05-07T13:28:53.138Z,10.11
2019-05-07T13:32:03.058Z,10.18
2019-05-07T13:35:11.922Z,10.30
2019-05-07T13:40:47.375Z,10.55
2019-05-07T13:46:16.462Z,10.49
2019-05-07T13:54:42.298Z,10.45
2019-05-07T13:57:12.100Z,10.53
2019-05-07T13:59:42.629Z,10.59
2019-05-07T14:02:15.367Z,10.66
2019-05-07T14:10:08.917Z,10.58
2019-05-07T14:13:17.698Z,10.60
2019-05-07T14:19:14.793Z,10.70
2019-05-07T14:21:44.105Z,10.58
2019-05-07T14:24:14.831Z,10.57
2019-05-07T14:26:44.610Z,10.78
2019-05-07T14:29:13.941Z,10.69
2019-05-07T14:31:43.316Z,10.71
2019-05-07T14:34:34.720Z,10.81
2019-05-07T14:37:22.096Z,10.83
2019-05-07T14:39:52.452Z,10.73
2019-05-07T14:45:45.191Z,10.77
2019-05-07T14:48:14.471Z,10.74
2019-05-07T14:50:45.034Z,10.87
2019-05-07T14:53:14.812Z,11.00
2019-05-07T14:55:44.097Z,10.83
2019-05-07T14:58:13.404Z,10.74
2019-05-07T15:01:02.439Z,10.79
2019-05-07T15:06:34.323Z,10.89
2019-05-07T15:09:04.908Z,10.88
2019-05-07T15:14:09.542Z,11.02
2019-05-07T15:16:38.851Z,10.83
2019-05-07T15:19:08.130Z,10.84
2019-05-07T15:21:37.589Z,10.87
2019-05-07T15:24:06.900Z,10.77
2019-05-07T15:26:36.220Z,10.76
2019-05-07T15:32:12.582Z,10.96
2019-05-07T15:34:42.222Z,10.99
2019-05-07T15:37:13.033Z,10.91
2019-05-07T15:40:02.426Z,11.08
2019-05-07T15:42:32.871Z,11.40
2019-05-07T15:45:03.618Z,11.51
2019-05-07T15:50:17.928Z,11.36
2019-05-07T15:53:06.119Z,11.48
2019-05-07T15:55:35.426Z,11.54
2019-05-07T15:58:04.827Z,11.56
2019-05-07T16:03:33.366Z,11.50
2019-05-07T16:06:03.823Z,11.53
2019-05-07T16:11:25.517Z,11.46
2019-05-07T16:14:14.643Z,11.46
2019-05-07T16:16:46.488Z,11.30
2019-05-07T16:24:59.466Z,11.22
2019-05-07T16:27:28.705Z,11.26
2019-05-07T16:29:58.026Z,11.34
2019-05-07T16:32:27.358Z,11.08
2019-05-07T16:34:56.670Z,11.02
2019-05-07T16:37:44.853Z,11.17
2019-05-07T16:40:34.601Z,11.17
2019-05-07T16:43:03.886Z,11.29
2019-05-07T16:45:33.178Z,11.33
2019-05-07T16:48:03.199Z,11.22
2019-05-07T16:50:33.543Z,11.09
2019-05-07T16:53:03.029Z,11.06
2019-05-07T16:55:52.268Z,10.91
2019-05-07T17:01:22.535Z,11.12
2019-05-07T17:03:58.866Z,11.14
2019-05-07T17:06:28.184Z,11.02
2019-05-07T17:14:30.273Z,10.77
2019-05-07T17:16:59.565Z,10.62
2019-05-07T17:19:28.934Z,10.51
2019-05-07T17:21:58.298Z,10.60
2019-05-07T17:24:27.601Z,10.54
2019-05-07T17:26:56.891Z,10.53
2019-05-07T17:29:26.197Z,10.45
2019-05-07T17:31:55.501Z,10.24
2019-05-07T17:34:43.699Z,10.40
2019-05-07T17:40:03.115Z,10.24
2019-05-07T17:42:32.855Z,9.93
2019-05-07T17:47:44.346Z,9.76
2019-05-07T17:53:50.441Z,9.21
2019-05-07T17:56:12.787Z,9.26
2019-05-07T17:58:43.225Z,9.31
2019-05-07T18:01:12.549Z,9.28
2019-05-07T18:03:42.781Z,9.20
2019-05-07T18:08:48.339Z,9.23
2019-05-07T18:11:32.429Z,9.14
2019-05-07T18:14:07.578Z,9.02
2019-05-07T18:16:55.771Z,8.98
2019-05-07T18:22:15.087Z,8.93
2019-05-07T18:24:44.382Z,8.87
2019-05-07T18:27:33.103Z,8.83
2019-05-07T18:30:04.065Z,8.83
2019-05-07T18:35:36.729Z,8.71
2019-05-07T18:38:06.027Z,8.61
2019-05-07T18:40:35.337Z,8.57
2019-05-07T18:43:04.731Z,8.51
2019-05-07T18:45:34.155Z,8.49
2019-05-07T18:48:03.469Z,8.39
2019-05-07T18:50:32.956Z,8.39
2019-05-07T18:53:02.891Z,8.26
2019-05-07T18:55:45.350Z,8.25
2019-05-07T18:58:14.684Z,8.25
2019-05-07T19:01:07.827Z,8.19
2019-05-07T19:03:37.130Z,8.17
2019-05-07T19:06:06.641Z,8.14
2019-05-07T19:08:35.926Z,7.98
2019-05-07T19:11:05.855Z,7.90
2019-05-07T19:13:36.233Z,7.87
2019-05-07T19:19:06.769Z,7.82
2019-05-07T19:21:55.103Z,7.78
2019-05-07T19:27:44.833Z,7.72
2019-05-07T19:33:12.371Z,7.62
2019-05-07T19:41:16.765Z,7.41
2019-05-07T19:44:04.964Z,7.38
2019-05-07T19:46:34.283Z,7.36
2019-05-07T19:49:03.599Z,7.32
2019-05-07T19:51:33.205Z,7.25
2019-05-07T19:54:02.520Z,7.24
2019-05-07T19:59:06.472Z,7.20
2019-05-07T20:04:16.116Z,7.20
2019-05-07T20:06:45.434Z,7.14
2019-05-07T20:09:32.337Z,7.06
2019-05-07T20:12:20.257Z,7.06
2019-05-07T20:14:51.631Z,7.04
2019-05-07T20:17:22.100Z,7.00
2019-05-07T20:19:52.709Z,6.98
2019-05-07T20:25:19.277Z,6.91
2019-05-07T20:27:48.380Z,6.87
2019-05-07T20:30:17.807Z,6.83
2019-05-07T20:32:47.212Z,6.85
2019-05-07T20:35:16.501Z,6.82
2019-05-07T20:37:45.839Z,6.77
2019-05-07T20:40:34.173Z,6.74
2019-05-07T20:43:03.512Z,6.75
2019-05-07T20:45:32.824Z,6.76
2019-05-07T20:48:02.639Z,6.74
2019-05-07T20:50:52.187Z,6.75
2019-05-07T20:53:42.313Z,6.76
2019-05-07T20:58:48.171Z,6.73
2019-05-07T21:01:17.512Z,6.71
2019-05-07T21:03:46.793Z,6.69
2019-05-07T21:06:16.112Z,6.67
2019-05-07T21:08:45.405Z,6.64
2019-05-07T21:11:14.706Z,6.64
2019-05-07T21:13:44.588Z,6.64
2019-05-07T21:16:15.013Z,6.63
2019-05-07T21:18:44.293Z,6.60
2019-05-07T21:21:13.623Z,6.59
2019-05-07T21:24:22.648Z,6.58
2019-05-07T21:27:04.508Z,6.57
2019-05-07T21:29:33.780Z,6.58
2019-05-07T21:32:23.154Z,6.57
2019-05-07T21:34:53.050Z,6.54
2019-05-07T21:37:23.047Z,6.52
2019-05-07T21:39:53.388Z,6.52
2019-05-07T21:42:23.048Z,6.51
2019-05-07T21:44:53.675Z,6.49
2019-05-07T21:47:22.967Z,6.50
2019-05-07T21:49:54.210Z,6.52
2019-05-07T21:55:38.296Z,6.49
2019-05-07T21:58:26.473Z,6.46
2019-05-07T22:06:33.868Z,6.43
2019-05-07T22:09:03.317Z,6.43
2019-05-07T22:11:32.698Z,6.43
2019-05-07T22:16:36.825Z,6.47
2019-05-07T22:19:25.288Z,6.47
2019-05-07T22:21:54.610Z,6.46
2019-05-07T22:24:23.885Z,6.45
2019-05-07T22:26:53.174Z,6.44
2019-05-07T22:29:22.838Z,6.45
2019-05-07T22:35:04.203Z,6.42
2019-05-07T22:37:33.500Z,6.41
2019-05-07T22:40:02.962Z,6.43
2019-05-07T22:42:32.785Z,6.42
2019-05-07T22:45:03.372Z,6.41
2019-05-07T22:47:32.750Z,6.44
2019-05-07T22:52:55.765Z,6.45
2019-05-07T22:58:32.620Z,6.45
2019-05-07T23:03:55.471Z,6.40
2019-05-07T23:06:24.763Z,6.40
2019-05-07T23:08:54.025Z,6.39
2019-05-07T23:11:23.365Z,6.37
2019-05-07T23:13:54.871Z,6.39
2019-05-07T23:16:23.656Z,6.40
2019-05-07T23:18:52.939Z,6.41
2019-05-07T23:21:24.283Z,6.40
2019-05-07T23:23:53.205Z,6.38
2019-05-07T23:26:23.381Z,6.39
2019-05-07T23:28:53.492Z,6.36
2019-05-07T23:31:23.024Z,6.33
2019-05-07T23:33:53.798Z,6.30
2019-05-07T23:36:23.063Z,6.26
2019-05-07T23:38:52.440Z,6.24
2019-05-07T23:41:42.077Z,6.22
2019-05-07T23:44:30.616Z,6.21
2019-05-07T23:46:59.938Z,6.22
2019-05-07T23:49:29.218Z,6.23
2019-05-07T23:51:58.492Z,6.21
2019-05-07T23:54:27.769Z,6.19
2019-05-07T23:57:05.856Z,6.20
2019-05-07T23:59:28.048Z,6.21
